Elettra — H9AK — position and weather

sailwx.info

Track history (hours):
 
Tides and Currents Weather Stations Pressure Air Temp Water Temp Dewpoint Dewpoint Depression Visibility Wind Speed Wind Dir Waves Ship Positions

Elettra

Last reported at 2015-Aug-03 01:32 UTC. Time now 2015-Aug-30 13:58 UTC.
Position N 33°10' E 124°49'.
Warning: this ship's position is 27 days out of date.

Length 254 m; draft 6.9 m.

Type: Cargo ship. MMSI: 371188000.

Date/timePositionNaut miles runAvg speedWind from/ knotsBaromVisibWave heightAir tempDewpointWater temp
2015-Aug-03 01:32N 33°10' E 124°49'3012.2
2015-Aug-02 23:03N 33°40' E 124°50'1112.0
2015-Aug-02 22:06N 33°51' E 124°50'611.6
2015-Aug-02 21:33N 33°58' E 124°50'1110.9
2015-Aug-02 20:33N 34°09' E 124°50'1110.2
2015-Aug-02 19:28N 34°20' E 124°50'9 9.5
2015-Aug-02 18:33N 34°29' E 124°50'20 8.8
2015-Aug-02 16:15N 34°49' E 124°50'6 9.2
2015-Aug-02 15:33N 34°55' E 124°50'2110.5
2015-Aug-02 13:33N 35°16' E 124°50'  
2015-Jul-26 19:21N 32°13' E 125°42'11 9.9
2015-Jul-26 18:12N 32°03' E 125°48'6 9.7
2015-Jul-26 17:32N 31°58' E 125°52'  
Track history (hours):
 
Tides and Currents Weather Stations Pressure Air Temp Water Temp Dewpoint Dewpoint Depression Visibility Wind Speed Wind Dir Waves Ship Positions

Elettra

Last reported at 2015-Aug-03 01:32 UTC. Time now 2015-Aug-30 13:58 UTC.
Position N 33°10' E 124°49'.
Warning: this ship's position is 27 days out of date.

Length 254 m; draft 6.9 m.

Type: Cargo ship. MMSI: 371188000.

Date/timePositionNaut miles runAvg speedWind from/ knotsBaromVisibWave heightAir tempDewpointWater temp
2015-Aug-03 01:32N 33°10' E 124°49'3012.2
2015-Aug-02 23:03N 33°40' E 124°50'1112.0
2015-Aug-02 22:06N 33°51' E 124°50'611.6
2015-Aug-02 21:33N 33°58' E 124°50'1110.9
2015-Aug-02 20:33N 34°09' E 124°50'1110.2
2015-Aug-02 19:28N 34°20' E 124°50'9 9.5
2015-Aug-02 18:33N 34°29' E 124°50'20 8.8
2015-Aug-02 16:15N 34°49' E 124°50'6 9.2
2015-Aug-02 15:33N 34°55' E 124°50'2110.5
2015-Aug-02 13:33N 35°16' E 124°50'  
2015-Jul-26 19:21N 32°13' E 125°42'11 9.9
2015-Jul-26 18:12N 32°03' E 125°48'6 9.7
2015-Jul-26 17:32N 31°58' E 125°52'  

Dump ship's entire track history